world map with ETHL marked

ETHL - Airport

This information may not be accurate or current and is not valid for navigation or flight planning. No warranty of fitness for any purpose is made or implied.

flag of Baden-Württembergflag of Germany

Donate via PayPal

Additional information is available on the NEW Great Circle Mapper

Location
City:  Laupheim, Baden-Württemberg, Germany
ICAO:ETHL

Details
Type:Airport (Flugplatz, Airfield)
Use:Military
Latitude:48°13'12"N (48.220117)
Longitude:9°54'37"E (9.910200)
Elevation:1766 ft (538 m)
Runways:2
Longest:5400 × 98 ft (1646 × 30 m)

Time
Timezone:UTC+1 (DST+4)
Local Time:

Weather
METAR:ETHL  041320Z 08008KT 9999 FEW020 01/M04 Q1026 BLU+BLU+
TAF:ETHL  (expired)

Related Locations
Nearby:
Farthest:CHT: 12003 mi / 19317 km
Waitangi [Tuuta], CIT, NZ

Find:

   beyond  
but within

Other Information
Maps:
Sources:

  


 


Great Circle Mapper   Great Circle Mapper
Great Circle Mapper FAQ   Great Circle Mapper FAQ
  Karl's Home Page
KLS²   KLS² Home
   GC on Facebook
Airlines of the World   Airlines of the World
Donate via PayPal


Copyright © 2004-2019, Karl L. Swartz. All rights reserved.
All trademarks mentioned herein belong to their respective owners.

Please see credits for attribution and copyright information.

Karl Swartz <karl@kls2.com>
  Powered by FreeBSD
Valid HTML 4.01!
Labeled with ICRA
hCard Microformat
Geo Microformat